createdAt,value
2023-06-07T00:00:38.349Z,17.82
2023-06-07T00:03:10.500Z,17.83
2023-06-07T00:05:40.315Z,17.78
2023-06-07T00:08:08.698Z,17.75
2023-06-07T00:10:38.162Z,17.73
2023-06-07T00:13:06.568Z,17.79
2023-06-07T00:15:34.292Z,17.78
2023-06-07T00:18:02.568Z,17.78
2023-06-07T00:20:31.925Z,17.74
2023-06-07T00:22:59.665Z,17.69
2023-06-07T00:25:28.618Z,17.68
2023-06-07T00:27:57.849Z,17.66
2023-06-07T00:30:25.647Z,17.64
2023-06-07T00:32:53.452Z,17.63
2023-06-07T00:35:21.239Z,17.64
2023-06-07T00:37:48.962Z,17.65
2023-06-07T00:40:17.106Z,17.60
2023-06-07T00:42:45.100Z,17.61
2023-06-07T00:45:14.431Z,17.61
2023-06-07T00:47:42.985Z,17.61
2023-06-07T00:50:12.433Z,17.62
2023-06-07T00:52:41.302Z,17.60
2023-06-07T00:55:11.050Z,17.59
2023-06-07T00:57:39.480Z,17.59
2023-06-07T01:00:11.110Z,17.58
2023-06-07T01:02:40.771Z,17.54
2023-06-07T01:05:09.416Z,17.51
2023-06-07T01:07:37.379Z,17.44
2023-06-07T01:10:07.525Z,17.44
2023-06-07T01:12:35.803Z,17.49
2023-06-07T01:15:05.355Z,17.54
2023-06-07T01:17:33.931Z,17.53
2023-06-07T01:20:06.455Z,17.53
2023-06-07T01:22:35.821Z,17.53
2023-06-07T01:25:05.757Z,17.50
2023-06-07T01:27:34.726Z,17.45
2023-06-07T01:30:03.484Z,17.42
2023-06-07T01:32:32.408Z,17.39
2023-06-07T01:35:00.630Z,17.35
2023-06-07T01:37:29.094Z,17.30
2023-06-07T01:39:58.632Z,17.25
2023-06-07T01:42:28.601Z,17.18
2023-06-07T01:44:57.311Z,17.12
2023-06-07T01:47:25.634Z,17.05
2023-06-07T01:49:53.582Z,17.02
2023-06-07T01:52:21.577Z,16.98
2023-06-07T01:54:50.163Z,16.93
2023-06-07T01:57:26.485Z,16.91
2023-06-07T02:00:08.826Z,16.87
2023-06-07T02:02:46.080Z,16.83
2023-06-07T02:05:18.954Z,16.73
2023-06-07T02:07:50.432Z,16.68
2023-06-07T02:10:21.418Z,16.67
2023-06-07T02:12:51.748Z,16.67
2023-06-07T02:15:21.077Z,16.66
2023-06-07T02:17:58.572Z,16.60
2023-06-07T02:20:27.505Z,16.57
2023-06-07T02:22:56.083Z,16.55
2023-06-07T02:25:24.106Z,16.55
2023-06-07T02:27:52.640Z,16.54
2023-06-07T02:30:22.296Z,16.56
2023-06-07T02:32:50.887Z,16.60
2023-06-07T02:35:20.091Z,16.61
2023-06-07T02:37:48.196Z,16.64
2023-06-07T02:40:16.834Z,16.62
2023-06-07T02:42:48.233Z,16.66
2023-06-07T02:45:16.685Z,16.66
2023-06-07T02:47:46.550Z,16.68
2023-06-07T02:50:14.417Z,16.66
2023-06-07T02:52:42.712Z,16.65
2023-06-07T02:55:11.164Z,16.65
2023-06-07T02:57:38.919Z,16.66
2023-06-07T03:00:11.961Z,16.67
2023-06-07T03:02:40.087Z,16.68
2023-06-07T03:05:10.238Z,16.69
2023-06-07T03:07:38.135Z,16.71
2023-06-07T03:10:06.991Z,16.70
2023-06-07T03:12:35.064Z,16.72
2023-06-07T03:15:02.926Z,16.71
2023-06-07T03:17:32.398Z,16.74
2023-06-07T03:20:00.245Z,16.74
2023-06-07T03:22:29.530Z,16.75
2023-06-07T03:24:58.515Z,16.73
2023-06-07T03:27:28.728Z,16.77
2023-06-07T03:29:57.440Z,16.76
2023-06-07T03:32:25.257Z,16.80
2023-06-07T03:34:53.574Z,16.82
2023-06-07T03:37:21.532Z,16.84
2023-06-07T03:39:51.035Z,16.87
2023-06-07T03:42:18.916Z,16.87
2023-06-07T03:44:50.596Z,16.89
2023-06-07T03:47:18.388Z,16.87
2023-06-07T03:49:46.084Z,16.89
2023-06-07T03:52:13.944Z,16.91
2023-06-07T03:54:41.827Z,16.92
2023-06-07T03:57:11.599Z,16.96
2023-06-07T03:59:39.409Z,16.99
2023-06-07T04:02:08.180Z,17.04
2023-06-07T04:04:36.174Z,17.05
2023-06-07T04:07:04.424Z,17.09
2023-06-07T04:09:32.351Z,17.17
2023-06-07T04:12:00.127Z,17.20
2023-06-07T04:14:29.424Z,17.24
2023-06-07T04:16:57.317Z,17.28
2023-06-07T04:19:25.235Z,17.31
2023-06-07T04:21:53.863Z,17.28
2023-06-07T04:24:21.669Z,17.33
2023-06-07T04:26:50.938Z,17.33
2023-06-07T04:29:21.996Z,17.35
2023-06-07T04:31:53.761Z,17.36
2023-06-07T04:34:22.853Z,17.41
2023-06-07T04:36:51.367Z,17.48
2023-06-07T04:39:21.633Z,17.50
2023-06-07T04:41:50.263Z,17.57
2023-06-07T04:44:30.049Z,17.64
2023-06-07T04:47:06.605Z,17.69
2023-06-07T04:49:39.658Z,17.77
2023-06-07T04:52:08.480Z,17.73
2023-06-07T04:54:37.926Z,17.82
2023-06-07T04:57:07.925Z,17.89
2023-06-07T04:59:42.788Z,17.97
2023-06-07T05:02:12.655Z,18.00
2023-06-07T05:04:41.613Z,17.97
2023-06-07T05:07:10.191Z,18.00
2023-06-07T05:09:38.787Z,18.05
2023-06-07T05:12:07.800Z,18.09
2023-06-07T05:14:35.819Z,18.16
2023-06-07T05:17:03.780Z,18.22
2023-06-07T05:19:33.575Z,18.39
2023-06-07T05:22:01.554Z,18.50
2023-06-07T05:24:29.614Z,18.70
2023-06-07T05:26:57.556Z,18.81
2023-06-07T05:29:25.482Z,18.86
2023-06-07T05:31:53.521Z,19.20
2023-06-07T05:34:21.603Z,19.29
2023-06-07T05:36:52.527Z,19.31
2023-06-07T05:39:20.742Z,19.38
2023-06-07T05:41:48.684Z,19.56
2023-06-07T05:44:16.634Z,19.70
2023-06-07T05:46:44.578Z,20.02
2023-06-07T05:49:12.625Z,20.23
2023-06-07T05:51:40.787Z,20.58
2023-06-07T05:54:10.063Z,20.68
2023-06-07T05:56:37.954Z,20.90
2023-06-07T05:59:06.124Z,21.23
2023-06-07T06:01:35.979Z,21.39
2023-06-07T06:04:04.402Z,21.74
2023-06-07T06:06:32.232Z,22.16
2023-06-07T06:09:00.114Z,22.19
2023-06-07T06:11:29.431Z,22.76
2023-06-07T06:13:57.306Z,23.77
2023-06-07T06:16:25.163Z,24.98
2023-06-07T06:18:53.015Z,25.42
2023-06-07T06:21:21.029Z,26.50
2023-06-07T06:23:50.086Z,26.94
2023-06-07T06:26:19.621Z,26.46
2023-06-07T06:28:49.039Z,26.17
2023-06-07T06:31:17.940Z,26.15
2023-06-07T06:33:47.499Z,27.01
2023-06-07T06:36:15.322Z,28.47
2023-06-07T06:38:43.174Z,29.41
2023-06-07T06:41:11.231Z,28.83
2023-06-07T06:43:39.410Z,27.93
2023-06-07T06:46:08.783Z,27.85
2023-06-07T06:48:38.726Z,27.84
2023-06-07T06:51:06.604Z,27.70
2023-06-07T06:53:34.669Z,28.13
2023-06-07T06:56:02.676Z,28.10
2023-06-07T06:58:32.109Z,28.95
2023-06-07T07:01:00.162Z,28.69
2023-06-07T07:03:29.464Z,28.80
2023-06-07T07:05:57.338Z,29.13
2023-06-07T07:08:25.798Z,28.47
2023-06-07T07:10:53.915Z,28.70
2023-06-07T07:13:22.052Z,29.01
2023-06-07T07:15:50.066Z,30.18
2023-06-07T07:18:18.265Z,30.47
2023-06-07T07:20:48.059Z,30.55
2023-06-07T07:23:16.092Z,31.65
2023-06-07T07:25:43.947Z,30.98
2023-06-07T07:28:11.909Z,30.59
2023-06-07T07:30:39.952Z,29.51
2023-06-07T07:33:07.799Z,28.99
2023-06-07T07:35:36.708Z,28.79
2023-06-07T07:38:06.430Z,28.67
2023-06-07T07:40:34.450Z,29.89
2023-06-07T07:43:02.428Z,30.44
2023-06-07T07:45:30.272Z,31.16
2023-06-07T07:47:58.181Z,30.61
2023-06-07T07:50:26.251Z,31.06
2023-06-07T07:52:56.081Z,31.58
2023-06-07T07:55:26.170Z,30.64
2023-06-07T07:57:54.059Z,30.94
2023-06-07T08:00:22.771Z,30.89
2023-06-07T08:02:50.727Z,30.40
2023-06-07T08:05:18.675Z,29.57
2023-06-07T08:07:46.618Z,29.77
2023-06-07T08:10:14.536Z,29.77
2023-06-07T08:12:44.182Z,29.96
2023-06-07T08:15:12.874Z,30.44
2023-06-07T08:17:41.642Z,30.59
2023-06-07T08:20:10.709Z,30.92
2023-06-07T08:22:39.270Z,31.03
2023-06-07T08:25:08.357Z,30.73
2023-06-07T08:27:36.697Z,30.83
2023-06-07T08:30:07.615Z,29.28
2023-06-07T08:32:36.442Z,28.96
2023-06-07T08:35:04.989Z,28.22
2023-06-07T08:37:33.748Z,28.44
2023-06-07T08:40:01.732Z,28.81
2023-06-07T08:42:29.818Z,29.16
2023-06-07T08:44:57.906Z,29.31
2023-06-07T08:47:29.245Z,28.95
2023-06-07T08:49:58.903Z,29.02
2023-06-07T08:52:27.553Z,29.25
2023-06-07T08:55:00.352Z,29.38
2023-06-07T08:57:32.159Z,29.68
2023-06-07T09:00:01.533Z,30.00
2023-06-07T09:02:31.162Z,29.89
2023-06-07T09:05:02.775Z,29.31
2023-06-07T09:07:30.649Z,29.09
2023-06-07T09:09:58.553Z,29.33
2023-06-07T09:12:26.409Z,29.15
2023-06-07T09:14:55.677Z,28.57
2023-06-07T09:17:24.185Z,28.25
2023-06-07T09:19:53.641Z,27.93
2023-06-07T09:22:26.864Z,27.79
2023-06-07T09:24:55.868Z,28.10
2023-06-07T09:27:31.430Z,28.07
2023-06-07T09:30:05.866Z,27.65
2023-06-07T09:32:38.514Z,27.95
2023-06-07T09:35:15.372Z,27.99
2023-06-07T09:37:44.685Z,28.38
2023-06-07T09:40:14.728Z,28.54
2023-06-07T09:42:43.064Z,28.98
2023-06-07T09:45:14.799Z,29.16
2023-06-07T09:47:43.959Z,28.97
2023-06-07T09:50:15.293Z,28.90
2023-06-07T09:52:43.190Z,28.68
2023-06-07T09:55:28.596Z,28.14
2023-06-07T09:57:57.612Z,27.98
2023-06-07T10:00:27.413Z,27.74
2023-06-07T10:03:06.774Z,27.79
2023-06-07T10:05:37.195Z,27.73
2023-06-07T10:08:06.449Z,27.74
2023-06-07T10:10:36.047Z,28.13
2023-06-07T10:13:06.681Z,28.49
2023-06-07T10:15:36.653Z,28.37
2023-06-07T10:18:14.651Z,27.75
2023-06-07T10:20:52.625Z,28.15
2023-06-07T10:23:30.357Z,28.18
2023-06-07T10:26:01.587Z,28.10
2023-06-07T10:28:34.493Z,27.89
2023-06-07T10:31:07.190Z,27.82
2023-06-07T10:33:35.894Z,28.35
2023-06-07T10:36:08.892Z,28.72
2023-06-07T10:38:37.439Z,28.54
2023-06-07T10:41:07.142Z,28.10
2023-06-07T10:43:36.090Z,28.31
2023-06-07T10:46:19.295Z,28.55
2023-06-07T10:48:48.140Z,28.57
2023-06-07T10:51:18.162Z,29.07
2023-06-07T10:53:53.701Z,28.95
2023-06-07T10:56:29.230Z,29.18
2023-06-07T10:58:59.059Z,28.89
2023-06-07T11:01:28.066Z,29.22
2023-06-07T11:03:56.296Z,28.74
2023-06-07T11:06:25.953Z,28.74
2023-06-07T11:09:20.409Z,28.84
2023-06-07T11:11:48.436Z,28.85
2023-06-07T11:14:16.514Z,28.83
2023-06-07T11:16:44.698Z,28.70
2023-06-07T11:19:14.897Z,28.66
2023-06-07T11:22:09.093Z,28.75
2023-06-07T11:24:39.076Z,29.26
2023-06-07T11:27:15.382Z,29.05
2023-06-07T11:29:44.819Z,28.92
2023-06-07T11:32:13.112Z,28.75
2023-06-07T11:34:41.195Z,28.41
2023-06-07T11:37:17.592Z,28.18
2023-06-07T11:39:46.584Z,28.22
2023-06-07T11:42:14.659Z,28.67
2023-06-07T11:44:43.571Z,28.63
2023-06-07T11:47:11.876Z,28.40
2023-06-07T11:49:43.212Z,28.23
2023-06-07T11:52:11.200Z,27.98
2023-06-07T11:54:46.448Z,27.87
2023-06-07T11:57:14.911Z,28.05
2023-06-07T11:59:44.072Z,27.86
2023-06-07T12:02:13.124Z,27.63
2023-06-07T12:04:45.466Z,27.82
2023-06-07T12:07:22.433Z,27.66
2023-06-07T12:09:54.585Z,27.95
2023-06-07T12:12:24.668Z,27.98
2023-06-07T12:15:01.492Z,28.06
2023-06-07T12:17:35.603Z,28.12
2023-06-07T12:20:10.613Z,28.07
2023-06-07T12:22:38.562Z,28.23
2023-06-07T12:25:15.139Z,28.04
2023-06-07T12:27:46.640Z,28.12
2023-06-07T12:30:14.729Z,28.27
2023-06-07T12:32:44.491Z,28.14
2023-06-07T12:35:13.651Z,28.14
2023-06-07T12:37:41.934Z,28.13
2023-06-07T12:40:11.763Z,28.08
2023-06-07T12:42:41.560Z,28.14
2023-06-07T12:45:10.861Z,27.97
2023-06-07T12:47:38.926Z,28.05
2023-06-07T12:50:07.547Z,28.18
2023-06-07T12:52:35.600Z,28.23
2023-06-07T12:55:04.047Z,28.12
2023-06-07T12:57:33.661Z,28.27
2023-06-07T13:00:01.555Z,28.41
2023-06-07T13:02:30.194Z,28.47
2023-06-07T13:04:58.174Z,28.38
2023-06-07T13:07:26.254Z,28.50
2023-06-07T13:09:54.170Z,28.60
2023-06-07T13:12:22.072Z,28.59
2023-06-07T13:14:51.309Z,28.65
2023-06-07T13:17:19.429Z,28.26
2023-06-07T13:19:47.677Z,28.13
2023-06-07T13:22:15.747Z,28.43
2023-06-07T13:24:44.010Z,28.40
2023-06-07T13:27:11.974Z,28.36
2023-06-07T13:29:40.331Z,28.64
2023-06-07T13:32:10.330Z,28.32
2023-06-07T13:34:38.318Z,28.63
2023-06-07T13:37:06.707Z,28.66
2023-06-07T13:39:35.196Z,28.70
2023-06-07T13:42:04.938Z,28.50
2023-06-07T13:44:32.718Z,28.48
2023-06-07T13:47:04.284Z,28.64
2023-06-07T13:49:34.896Z,28.82
2023-06-07T13:52:03.393Z,28.60
2023-06-07T13:54:33.202Z,28.29
2023-06-07T13:57:01.688Z,28.58
2023-06-07T13:59:30.145Z,28.57
2023-06-07T14:01:58.759Z,28.49
2023-06-07T14:04:28.110Z,28.85
2023-06-07T14:06:57.523Z,29.10
2023-06-07T14:09:25.514Z,28.84
2023-06-07T14:11:53.407Z,29.33
2023-06-07T14:14:21.599Z,29.13
2023-06-07T14:16:50.509Z,29.15
2023-06-07T14:19:18.502Z,29.13
2023-06-07T14:21:46.492Z,28.77
2023-06-07T14:24:15.959Z,28.54
2023-06-07T14:26:44.267Z,28.63
2023-06-07T14:29:12.237Z,28.42
2023-06-07T14:31:41.074Z,28.72
2023-06-07T14:34:09.041Z,28.75
2023-06-07T14:36:37.534Z,28.77
2023-06-07T14:39:06.351Z,28.86
2023-06-07T14:41:35.705Z,28.78
2023-06-07T14:44:03.919Z,28.57
2023-06-07T14:46:31.789Z,28.50
2023-06-07T14:48:59.716Z,28.13
2023-06-07T14:51:31.111Z,28.33
2023-06-07T14:53:59.004Z,28.46
2023-06-07T14:56:28.161Z,28.35
2023-06-07T14:58:57.546Z,28.53
2023-06-07T15:01:26.396Z,28.33
2023-06-07T15:03:55.666Z,28.48
2023-06-07T15:06:23.608Z,28.38
2023-06-07T15:08:54.593Z,28.74
2023-06-07T15:11:22.708Z,28.69
2023-06-07T15:13:50.669Z,28.81
2023-06-07T15:16:20.167Z,29.20
2023-06-07T15:18:47.970Z,28.84
2023-06-07T15:21:15.720Z,28.83
2023-06-07T15:23:43.756Z,28.81
2023-06-07T15:26:11.846Z,28.88
2023-06-07T15:28:39.778Z,28.70
2023-06-07T15:31:07.748Z,28.67
2023-06-07T15:33:36.999Z,28.37
2023-06-07T15:36:08.422Z,28.35
2023-06-07T15:38:38.835Z,28.07
2023-06-07T15:43:44.096Z,27.95
2023-06-07T15:46:13.150Z,27.98
2023-06-07T15:48:49.015Z,27.95
2023-06-07T15:51:17.109Z,27.74
2023-06-07T15:53:47.573Z,27.79
2023-06-07T15:56:15.712Z,27.81
2023-06-07T15:58:44.100Z,27.87
2023-06-07T16:01:12.333Z,27.83
2023-06-07T16:03:54.928Z,27.71
2023-06-07T16:06:26.275Z,27.83
2023-06-07T16:08:54.378Z,28.06
2023-06-07T16:11:22.795Z,28.16
2023-06-07T16:13:50.786Z,28.00
2023-06-07T16:16:19.282Z,27.96
2023-06-07T16:18:48.430Z,27.90
2023-06-07T16:21:17.835Z,27.91
2023-06-07T16:23:47.272Z,27.93
2023-06-07T16:26:15.522Z,27.71
2023-06-07T16:28:43.650Z,27.70
2023-06-07T16:31:11.620Z,27.81
2023-06-07T16:33:39.555Z,27.77
2023-06-07T16:36:08.674Z,27.69
2023-06-07T16:38:37.013Z,27.70
2023-06-07T16:41:09.266Z,27.65
2023-06-07T16:43:40.562Z,27.64
2023-06-07T16:46:18.979Z,27.42
2023-06-07T16:48:47.065Z,27.36
2023-06-07T16:51:15.096Z,27.25
2023-06-07T16:53:43.312Z,27.17
2023-06-07T16:56:12.905Z,27.14
2023-06-07T16:58:41.224Z,27.07
2023-06-07T17:01:10.140Z,26.95
2023-06-07T17:03:38.293Z,26.97
2023-06-07T17:06:07.398Z,27.01
2023-06-07T17:08:35.552Z,27.07
2023-06-07T17:11:06.252Z,27.09
2023-06-07T17:13:36.200Z,27.12
2023-06-07T17:16:04.298Z,27.00
2023-06-07T17:18:32.328Z,27.03
2023-06-07T17:21:00.284Z,26.94
2023-06-07T17:23:28.309Z,26.88
2023-06-07T17:25:56.388Z,26.94
2023-06-07T17:28:24.357Z,26.90
2023-06-07T17:30:54.109Z,26.76
2023-06-07T17:33:22.191Z,26.71
2023-06-07T17:35:50.188Z,26.62
2023-06-07T17:38:18.822Z,26.52
2023-06-07T17:40:47.092Z,26.46
2023-06-07T17:43:15.862Z,26.42
2023-06-07T17:45:43.897Z,26.31
2023-06-07T17:48:14.871Z,26.16
2023-06-07T17:50:46.881Z,26.18
2023-06-07T17:53:15.872Z,26.09
2023-06-07T17:55:53.445Z,26.05
2023-06-07T17:58:21.724Z,26.01
2023-06-07T18:00:50.967Z,25.92
2023-06-07T18:03:21.416Z,25.83
2023-06-07T18:05:49.577Z,25.73
2023-06-07T18:08:17.455Z,25.69
2023-06-07T18:10:45.542Z,25.63
2023-06-07T18:13:13.431Z,25.55
2023-06-07T18:15:41.522Z,25.42
2023-06-07T18:18:09.647Z,25.32
2023-06-07T18:20:38.961Z,25.26
2023-06-07T18:23:07.029Z,25.17
2023-06-07T18:25:34.951Z,25.07
2023-06-07T18:28:02.886Z,25.01
2023-06-07T18:30:30.902Z,24.91
2023-06-07T18:32:58.905Z,24.82
2023-06-07T18:35:26.980Z,24.74
2023-06-07T18:37:56.699Z,24.57
2023-06-07T18:40:24.796Z,24.43
2023-06-07T18:42:52.688Z,24.26
2023-06-07T18:45:20.714Z,24.07
2023-06-07T18:47:48.713Z,24.00
2023-06-07T18:50:17.992Z,23.83
2023-06-07T18:52:46.048Z,23.73
2023-06-07T18:55:15.553Z,23.62
2023-06-07T18:57:43.668Z,23.51
2023-06-07T19:00:12.491Z,23.44
2023-06-07T19:02:40.761Z,23.30
2023-06-07T19:05:09.641Z,23.23
2023-06-07T19:07:38.071Z,23.15
2023-06-07T19:10:07.072Z,23.08
2023-06-07T19:12:36.682Z,23.11
2023-06-07T19:15:06.656Z,23.13
2023-06-07T19:17:35.069Z,23.11
2023-06-07T19:20:03.473Z,23.09
2023-06-07T19:22:31.590Z,23.07
2023-06-07T19:24:59.593Z,23.01
2023-06-07T19:27:30.477Z,22.90
2023-06-07T19:29:59.834Z,22.83
2023-06-07T19:32:30.638Z,22.78
2023-06-07T19:34:59.078Z,22.65
2023-06-07T19:37:27.392Z,22.59
2023-06-07T19:39:58.145Z,22.53
2023-06-07T19:42:27.799Z,22.54
2023-06-07T19:44:55.957Z,22.49
2023-06-07T19:47:25.785Z,22.44
2023-06-07T19:49:53.952Z,22.43
2023-06-07T19:52:22.016Z,22.44
2023-06-07T19:54:50.692Z,22.35
2023-06-07T19:57:19.171Z,22.32
2023-06-07T19:59:50.136Z,22.28
2023-06-07T20:02:20.712Z,22.26
2023-06-07T20:04:50.657Z,22.21
2023-06-07T20:07:18.953Z,22.18
2023-06-07T20:09:47.490Z,22.15
2023-06-07T20:12:15.640Z,22.12
2023-06-07T20:14:43.667Z,22.14
2023-06-07T20:17:12.240Z,22.06
2023-06-07T20:19:40.460Z,22.03
2023-06-07T20:22:10.208Z,21.99
2023-06-07T20:24:38.170Z,21.88
2023-06-07T20:27:06.737Z,21.86
2023-06-07T20:29:34.940Z,21.77
2023-06-07T20:32:03.075Z,21.75
2023-06-07T20:34:31.267Z,21.72
2023-06-07T20:36:59.135Z,21.64
2023-06-07T20:39:28.504Z,21.59
2023-06-07T20:41:57.523Z,21.58
2023-06-07T20:44:30.927Z,21.53
2023-06-07T20:47:08.162Z,21.46
2023-06-07T20:49:36.276Z,21.39
2023-06-07T20:52:04.390Z,21.27
2023-06-07T20:54:33.963Z,21.10
2023-06-07T20:57:01.912Z,21.02
2023-06-07T20:59:32.066Z,20.92
2023-06-07T21:02:01.440Z,20.82
2023-06-07T21:04:29.559Z,20.76
2023-06-07T21:06:58.826Z,20.64
2023-06-07T21:09:27.047Z,20.43
2023-06-07T21:11:56.837Z,20.24
2023-06-07T21:14:24.682Z,20.09
2023-06-07T21:16:52.704Z,20.04
2023-06-07T21:19:20.761Z,20.15
2023-06-07T21:21:48.721Z,20.15
2023-06-07T21:24:16.749Z,20.08
2023-06-07T21:26:44.964Z,20.05
2023-06-07T21:29:14.677Z,19.96
2023-06-07T21:31:43.563Z,19.78
2023-06-07T21:34:13.982Z,19.59
2023-06-07T21:36:42.674Z,19.46
2023-06-07T21:39:12.173Z,19.31
2023-06-07T21:41:43.582Z,19.21
2023-06-07T21:44:11.864Z,19.15
2023-06-07T21:46:41.400Z,19.10
2023-06-07T21:49:09.611Z,19.05
2023-06-07T21:51:40.611Z,19.07
2023-06-07T21:54:09.234Z,19.15
2023-06-07T21:56:42.507Z,19.11
2023-06-07T21:59:11.204Z,19.07
2023-06-07T22:01:42.319Z,19.03
2023-06-07T22:04:10.656Z,18.97
2023-06-07T22:06:44.679Z,18.98
2023-06-07T22:09:15.315Z,18.99
2023-06-07T22:11:46.645Z,18.85
2023-06-07T22:14:15.549Z,18.77
2023-06-07T22:16:51.316Z,18.69
2023-06-07T22:19:20.953Z,18.67
2023-06-07T22:21:49.761Z,18.66
2023-06-07T22:24:19.184Z,18.72
2023-06-07T22:26:50.189Z,18.58
2023-06-07T22:29:18.823Z,18.57
2023-06-07T22:31:48.744Z,18.62
2023-06-07T22:34:19.291Z,18.65
2023-06-07T22:36:50.452Z,18.69
2023-06-07T22:39:21.224Z,18.71
2023-06-07T22:41:53.241Z,18.78
2023-06-07T22:44:21.607Z,18.76
2023-06-07T22:46:52.677Z,18.76
2023-06-07T22:49:23.824Z,18.66
2023-06-07T22:51:54.629Z,18.58
2023-06-07T22:54:28.852Z,18.53
2023-06-07T22:56:58.496Z,18.47
2023-06-07T22:59:26.879Z,18.45
2023-06-07T23:02:00.769Z,18.37
2023-06-07T23:04:29.172Z,18.37
2023-06-07T23:06:59.425Z,18.30
2023-06-07T23:09:27.987Z,18.33
2023-06-07T23:12:00.368Z,18.34
2023-06-07T23:14:29.659Z,18.32
2023-06-07T23:17:02.456Z,18.35
2023-06-07T23:19:30.849Z,18.39
2023-06-07T23:21:59.973Z,18.33
2023-06-07T23:24:31.116Z,18.22
2023-06-07T23:27:00.318Z,18.19
2023-06-07T23:29:28.982Z,18.20
2023-06-07T23:31:59.300Z,18.19
2023-06-07T23:34:28.893Z,18.12
2023-06-07T23:36:57.005Z,18.08
2023-06-07T23:39:25.208Z,18.11
2023-06-07T23:41:55.885Z,18.02
2023-06-07T23:44:27.505Z,18.07
2023-06-07T23:46:56.968Z,18.01
2023-06-07T23:49:35.910Z,18.12
2023-06-07T23:52:06.157Z,18.05
2023-06-07T23:54:36.928Z,18.07
2023-06-07T23:57:10.795Z,18.16
2023-06-07T23:59:41.194Z,18.14
